This is the latest recevied weather packets stored in our database for station/object TA3MHA. If no packets are shown the sender has not sent any weather packets the latest 10 day(s).
| Time | Temp. | Humidity | Pressure | Rain* | Wind** | Luminosity | Snow |
|---|---|---|---|---|---|---|---|
| 1777523101 | 11.11° C | 70% | - | 0 mm | - | 95 W/m² | - |
| 1777522800 | 12.22° C | 68% | - | 0 mm | - | 85 W/m² | - |
| 1777522500 | 12.22° C | 65% | - | 0 mm | - | 59 W/m² | - |
| 1777522200 | 11.67° C | 67% | - | 0 mm | - | 69 W/m² | - |
| 1777521900 | 11.11° C | 68% | - | 0 mm | - | 62 W/m² | - |
| 1777521600 | 10.56° C | 71% | - | 0 mm | - | 50 W/m² | - |
| 1777521300 | 10.56° C | 68% | - | 0 mm | - | 42 W/m² | - |
| 1777521000 | 10.56° C | 69% | - | 0 mm | - | 35 W/m² | - |
| 1777520700 | 10° C | 71% | - | 0 mm | - | 28 W/m² | - |
| 1777520400 | 9.44° C | 72% | - | 0 mm | - | 23 W/m² | - |
| 1777520100 | 9.44° C | 71% | - | 0 mm | - | 18 W/m² | - |
| 1777519800 | 9.44° C | 71% | - | 0 mm | - | 13 W/m² | - |
| 1777519500 | 10° C | 69% | - | 0 mm | - | 9 W/m² | - |
| 1777519200 | 9.44° C | 71% | - | 0 mm | - | 6 W/m² | - |
| 1777518900 | 9.44° C | 70% | - | 0 mm | - | 3 W/m² | - |
| 1777518600 | 9.44° C | 69% | - | 0 mm | - | 2 W/m² | - |
| 1777518300 | 10° C | 68% | - | 0 mm | - | 1 W/m² | - |
| 1777518000 | 10° C | 68% | - | 0 mm | - | 0 W/m² | - |
| 1777517700 | 10° C | 69% | - | 0 mm | - | 0 W/m² | - |
| 1777517400 | 9.44° C | 72% | - | 0 mm | - | 0 W/m² | - |
| 1777517100 | 8.89° C | 74% | - | 0 mm | - | 0 W/m² | - |
| 1777516800 | 8.89° C | 75% | - | 0 mm | - | 0 W/m² | - |
| 1777516500 | 9.44° C | 74% | - | 0 mm | - | 0 W/m² | - |
| 1777516200 | 8.89° C | 76% | - | 0 mm | - | 0 W/m² | - |
| 1777515900 | 8.33° C | 78% | - | 0 mm | - | 0 W/m² | - |
* Rain latest hour (hover to see other rain measurements)
** Current wind speed in m/s (hover to see current wind gust speed)